Time;durP1;ratioP1;P1;durP2;ratioP2;P2;SDS_P1;SDS_P2;PMS_P1;PMS_P2;Temp;Humidity;BMP_temperature;BMP_pressure;BME280_temperature;BME280_humidity;BME280_pressure;Samples;Min_cycle;Max_cycle;Signal;HPM_P1;HPM_P2
2024/01/18 00:00:59;;;;;;;39.13;22.40;;;2.10;49.40;;;;;;5099422;28;20465;-76
2024/01/18 00:03:25;;;;;;;40.50;21.43;;;2.00;48.70;;;;;;5119277;28;20430;-76
2024/01/18 00:05:50;;;;;;;41.83;21.58;;;2.10;48.30;;;;;;5117825;28;20376;-78
2024/01/18 00:08:16;;;;;;;41.83;22.83;;;2.00;49.00;;;;;;5119396;28;20377;-78
2024/01/18 00:10:41;;;;;;;43.10;23.05;;;1.70;51.50;;;;;;5120325;28;20408;-78
2024/01/18 00:13:07;;;;;;;45.17;22.40;;;1.80;51.90;;;;;;5117712;28;20384;-76
2024/01/18 00:15:32;;;;;;;41.87;22.47;;;2.00;48.70;;;;;;5116724;28;20395;-76
2024/01/18 00:17:58;;;;;;;44.47;22.37;;;2.00;48.30;;;;;;5116668;28;20388;-76
2024/01/18 00:20:24;;;;;;;36.20;21.83;;;2.00;48.50;;;;;;5126770;28;20450;-76
2024/01/18 00:22:49;;;;;;;40.40;21.80;;;2.00;48.60;;;;;;5130116;28;20435;-75
2024/01/18 00:25:15;;;;;;;42.25;22.48;;;2.00;48.90;;;;;;5125755;28;20414;-77
2024/01/18 00:27:41;;;;;;;44.83;22.43;;;2.00;48.00;;;;;;5117946;28;21068;-78
2024/01/18 00:30:07;;;;;;;48.20;21.80;;;1.80;49.00;;;;;;5117877;28;20411;-76
2024/01/18 00:32:32;;;;;;;37.35;19.75;;;1.80;49.70;;;;;;5120418;28;20380;-76
2024/01/18 00:34:58;;;;;;;38.10;20.70;;;1.80;48.10;;;;;;5130205;28;20364;-74
2024/01/18 00:37:24;;;;;;;39.87;21.63;;;1.80;47.50;;;;;;5138824;28;20408;-74
2024/01/18 00:39:49;;;;;;;34.60;21.35;;;1.70;48.30;;;;;;5138211;28;20455;-73
2024/01/18 00:42:16;;;;;;;45.47;22.73;;;1.70;49.10;;;;;;5139061;28;20482;-73
2024/01/18 00:44:41;;;;;;;43.10;21.85;;;1.70;49.40;;;;;;5138956;28;20369;-72
2024/01/18 00:47:07;;;;;;;40.50;21.97;;;1.70;49.60;;;;;;5139309;28;20379;-77
2024/01/18 00:49:33;;;;;;;45.20;22.97;;;1.60;49.50;;;;;;5138653;28;20436;-73
2024/01/18 00:51:58;;;;;;;35.88;22.52;;;1.50;50.00;;;;;;5138828;28;20384;-73
2024/01/18 00:54:24;;;;;;;39.20;22.00;;;1.50;49.40;;;;;;5138726;28;20396;-71
2024/01/18 00:56:50;;;;;;;45.30;22.42;;;1.40;49.10;;;;;;5138968;28;20395;-74
2024/01/18 00:59:15;;;;;;;42.95;22.13;;;1.30;50.50;;;;;;5138787;28;20457;-72
2024/01/18 01:01:41;;;;;;;45.65;23.42;;;1.40;50.00;;;;;;5138175;28;20420;-73
2024/01/18 01:04:06;;;;;;;44.77;23.83;;;1.60;49.40;;;;;;5137770;28;20384;-74
2024/01/18 01:06:32;;;;;;;35.27;20.93;;;1.60;48.70;;;;;;5138152;28;20393;-74
2024/01/18 01:08:57;;;;;;;39.40;22.30;;;1.60;48.60;;;;;;5137781;28;20381;-75
2024/01/18 01:11:23;;;;;;;38.20;22.70;;;1.50;49.50;;;;;;5118949;28;20388;-74
2024/01/18 01:13:48;;;;;;;44.03;23.38;;;1.30;51.30;;;;;;5137349;28;20396;-74
2024/01/18 01:16:14;;;;;;;38.42;21.30;;;1.40;52.10;;;;;;5126043;28;20380;-77
2024/01/18 01:18:39;;;;;;;38.73;20.60;;;1.50;50.40;;;;;;5121102;28;20380;-76
2024/01/18 01:21:05;;;;;;;39.10;20.60;;;1.80;47.70;;;;;;5121714;28;20908;-75
2024/01/18 01:23:31;;;;;;;39.10;21.27;;;1.70;46.90;;;;;;5104866;28;20400;-75
2024/01/18 01:25:56;;;;;;;40.63;21.23;;;1.70;47.00;;;;;;5124078;28;20405;-76
2024/01/18 01:28:22;;;;;;;33.08;20.98;;;1.70;47.30;;;;;;5120850;28;20441;-75
2024/01/18 01:30:48;;;;;;;34.47;19.80;;;1.60;47.50;;;;;;5116504;28;20391;-77
2024/01/18 01:33:14;;;;;;;35.03;20.85;;;1.70;47.20;;;;;;5116799;28;20377;-77
2024/01/18 01:35:41;;;;;;;37.42;21.00;;;1.70;47.40;;;;;;5117514;28;20440;-76
2024/01/18 01:38:07;;;;;;;34.63;19.87;;;1.70;47.40;;;;;;5117316;28;20830;-75
2024/01/18 01:40:32;;;;;;;36.40;21.13;;;1.70;47.40;;;;;;5115973;28;20404;-76
2024/01/18 01:42:58;;;;;;;38.30;21.60;;;1.60;47.60;;;;;;5117794;28;20404;-76
2024/01/18 01:45:23;;;;;;;39.33;22.60;;;1.50;48.30;;;;;;5118101;28;20396;-76
2024/01/18 01:47:50;;;;;;;38.80;20.98;;;1.50;48.20;;;;;;5131698;28;20445;-73
2024/01/18 01:50:16;;;;;;;34.50;21.23;;;1.40;49.10;;;;;;5115466;28;20457;-76
2024/01/18 01:52:42;;;;;;;36.77;21.00;;;1.50;48.70;;;;;;5106716;28;20376;-77
2024/01/18 01:55:09;;;;;;;36.72;22.00;;;1.70;47.90;;;;;;5116729;28;20384;-77
2024/01/18 01:57:36;;;;;;;35.22;21.45;;;1.80;47.00;;;;;;5116147;28;20467;-76
2024/01/18 02:00:02;;;;;;;40.78;21.17;;;1.80;46.80;;;;;;5115002;28;20404;-77
2024/01/18 02:02:28;;;;;;;41.13;21.27;;;1.80;46.80;;;;;;5115517;28;20445;-77
2024/01/18 02:04:54;;;;;;;43.67;22.47;;;1.80;46.70;;;;;;5122379;28;20368;-76
2024/01/18 02:07:20;;;;;;;36.47;21.65;;;1.80;46.80;;;;;;5115816;28;20391;-77
2024/01/18 02:09:47;;;;;;;36.03;21.55;;;1.60;47.70;;;;;;5117295;28;20376;-77
2024/01/18 02:12:16;;;;;;;44.28;23.02;;;1.70;48.00;;;;;;5115278;28;20383;-76
2024/01/18 02:14:44;;;;;;;43.35;22.35;;;1.70;47.60;;;;;;5115496;28;20467;-77
2024/01/18 02:17:10;;;;;;;36.90;21.95;;;1.70;47.40;;;;;;5096205;28;20380;-76
2024/01/18 02:19:35;;;;;;;40.95;21.58;;;1.70;46.80;;;;;;5117484;28;20422;-76
2024/01/18 02:22:02;;;;;;;36.10;21.33;;;1.80;46.90;;;;;;5110366;28;20392;-77
2024/01/18 02:24:40;;;;;;;35.35;21.83;;;1.70;47.40;;;;;;5118748;28;20900;-76
2024/01/18 02:27:05;;;;;;;37.35;22.83;;;1.70;47.70;;;;;;5115517;28;20784;-78
2024/01/18 02:29:32;;;;;;;39.67;22.40;;;1.80;47.10;;;;;;5126028;22;20400;-72
2024/01/18 02:31:57;;;;;;;34.47;21.40;;;1.80;46.60;;;;;;5071213;28;20388;-72
2024/01/18 02:34:23;;;;;;;38.20;22.53;;;1.80;46.10;;;;;;5071864;28;20383;-72
2024/01/18 02:36:49;;;;;;;39.38;23.55;;;1.60;47.20;;;;;;5071123;28;20376;-72
2024/01/18 02:39:15;;;;;;;38.53;22.80;;;1.70;47.60;;;;;;5071669;28;20380;-73
2024/01/18 02:41:41;;;;;;;44.72;22.70;;;1.70;47.50;;;;;;5071487;28;20392;-72
2024/01/18 02:44:07;;;;;;;42.23;22.60;;;1.60;47.30;;;;;;5071039;28;20444;-72
2024/01/18 02:46:33;;;;;;;39.90;22.00;;;1.60;47.60;;;;;;5071567;28;20379;-73
2024/01/18 02:48:59;;;;;;;39.60;22.40;;;1.60;47.70;;;;;;5072114;28;20402;-72
2024/01/18 02:51:25;;;;;;;38.70;22.48;;;1.70;47.30;;;;;;5072630;28;20742;-72
2024/01/18 02:53:51;;;;;;;36.58;22.55;;;1.70;47.40;;;;;;5072487;28;20390;-72
2024/01/18 02:56:16;;;;;;;39.53;22.50;;;1.60;47.90;;;;;;5072984;28;20380;-73
2024/01/18 02:58:42;;;;;;;35.97;22.33;;;1.70;46.90;;;;;;5073072;28;20380;-73
2024/01/18 03:01:09;;;;;;;35.97;22.63;;;1.80;46.20;;;;;;5074455;28;20444;-72
2024/01/18 03:03:35;;;;;;;36.97;22.60;;;1.80;45.80;;;;;;5073584;28;20391;-73
2024/01/18 03:06:00;;;;;;;36.45;22.35;;;1.80;45.70;;;;;;5074493;28;20427;-72
2024/01/18 03:08:26;;;;;;;40.60;22.38;;;1.80;45.80;;;;;;5075177;28;20387;-73
2024/01/18 03:10:52;;;;;;;34.30;21.63;;;1.70;46.10;;;;;;5074321;28;20387;-72
2024/01/18 03:13:17;;;;;;;36.63;23.77;;;1.50;48.20;;;;;;5077160;28;20380;-72
2024/01/18 03:15:43;;;;;;;38.13;23.63;;;1.40;49.20;;;;;;5077065;28;20384;-73
2024/01/18 03:18:08;;;;;;;40.00;24.52;;;1.60;49.90;;;;;;5076239;28;20383;-73
2024/01/18 03:20:35;;;;;;;44.33;23.80;;;1.50;49.40;;;;;;5075742;28;20384;-73
2024/01/18 03:23:00;;;;;;;41.55;23.60;;;1.70;48.90;;;;;;5076217;28;20459;-73
2024/01/18 03:25:26;;;;;;;40.15;22.25;;;1.90;47.70;;;;;;5075803;28;20423;-73
2024/01/18 03:27:51;;;;;;;38.77;22.90;;;1.80;47.20;;;;;;5076125;28;20462;-72
2024/01/18 03:30:17;;;;;;;42.90;24.37;;;1.90;46.50;;;;;;5075494;28;20394;-73
2024/01/18 03:32:43;;;;;;;36.75;24.30;;;1.90;46.70;;;;;;5075372;28;20750;-73
2024/01/18 03:35:08;;;;;;;41.55;23.90;;;1.90;46.10;;;;;;5075706;28;20388;-72
2024/01/18 03:37:34;;;;;;;42.35;24.73;;;1.80;45.50;;;;;;5075848;28;20390;-73
2024/01/18 03:39:59;;;;;;;40.27;24.33;;;1.80;46.00;;;;;;5075523;28;20793;-72
2024/01/18 03:42:25;;;;;;;41.43;24.17;;;1.70;46.40;;;;;;5057676;28;20391;-73
2024/01/18 03:44:51;;;;;;;46.85;25.50;;;1.60;46.20;;;;;;5076093;28;20445;-72
2024/01/18 03:47:16;;;;;;;42.33;25.13;;;1.50;47.20;;;;;;5075121;28;20375;-72
2024/01/18 03:49:43;;;;;;;43.93;25.80;;;1.50;47.40;;;;;;5075000;28;20474;-73
2024/01/18 03:52:10;;;;;;;42.55;25.70;;;1.50;47.90;;;;;;5075552;28;20391;-73
2024/01/18 03:54:35;;;;;;;40.30;25.02;;;1.40;48.30;;;;;;5075196;28;20387;-73
2024/01/18 03:57:01;;;;;;;46.50;25.97;;;1.20;49.10;;;;;;5074859;28;20402;-73
2024/01/18 03:59:26;;;;;;;39.40;25.10;;;1.00;51.20;;;;;;5074917;28;20427;-73
2024/01/18 04:01:52;;;;;;;40.87;24.73;;;1.20;51.20;;;;;;5075212;28;20762;-72
2024/01/18 04:04:17;;;;;;;48.00;25.73;;;1.40;49.70;;;;;;5057330;28;20384;-73
2024/01/18 04:06:43;;;;;;;40.97;24.83;;;1.50;48.80;;;;;;5075646;28;20799;-73
2024/01/18 04:09:09;;;;;;;43.65;25.15;;;1.50;48.50;;;;;;5075554;28;20383;-73
2024/01/18 04:11:34;;;;;;;45.60;26.00;;;1.60;48.00;;;;;;5076758;28;20885;-72
2024/01/18 04:14:00;;;;;;;42.20;25.87;;;1.50;49.50;;;;;;5074714;28;20412;-72
2024/01/18 04:16:26;;;;;;;44.00;25.35;;;1.50;48.60;;;;;;5075926;28;20419;-75
2024/01/18 04:18:51;;;;;;;40.63;25.08;;;1.50;49.00;;;;;;5075150;28;20441;-73
2024/01/18 04:21:17;;;;;;;43.35;25.52;;;1.60;48.80;;;;;;5075169;28;20380;-72
2024/01/18 04:23:43;;;;;;;42.42;24.75;;;1.60;48.10;;;;;;5074395;28;20406;-72
2024/01/18 04:26:08;;;;;;;43.10;23.57;;;1.70;47.80;;;;;;5075095;28;20441;-73
2024/01/18 04:28:34;;;;;;;37.78;22.92;;;1.80;46.90;;;;;;5075428;28;20474;-73
2024/01/18 04:31:00;;;;;;;41.05;25.00;;;1.80;46.60;;;;;;5085343;28;20387;-72
2024/01/18 04:33:25;;;;;;;46.10;23.87;;;1.80;46.80;;;;;;5061976;28;20487;-73
2024/01/18 04:35:51;;;;;;;38.60;24.33;;;1.80;47.30;;;;;;5079646;28;20483;-73
2024/01/18 04:38:17;;;;;;;44.10;25.20;;;1.70;48.00;;;;;;5094964;28;20408;-71
2024/01/18 04:40:43;;;;;;;41.83;24.47;;;1.70;48.10;;;;;;5076677;28;20406;-72
2024/01/18 04:43:09;;;;;;;42.95;25.65;;;1.80;48.00;;;;;;5079042;28;20403;-73
2024/01/18 04:45:34;;;;;;;47.60;24.93;;;1.80;47.90;;;;;;5070134;28;20902;-73
2024/01/18 04:48:00;;;;;;;44.75;26.42;;;1.70;48.50;;;;;;5084756;28;20462;-73
2024/01/18 04:50:26;;;;;;;39.45;24.73;;;1.70;49.20;;;;;;5094597;28;20370;-72
2024/01/18 04:52:52;;;;;;;45.53;26.87;;;1.70;49.50;;;;;;5071220;28;20485;-72
2024/01/18 04:55:18;;;;;;;46.65;26.30;;;1.60;49.90;;;;;;5089998;28;20732;-75
2024/01/18 04:57:44;;;;;;;42.90;25.00;;;1.50;51.00;;;;;;5075922;28;20391;-73
2024/01/18 05:00:10;;;;;;;44.63;25.95;;;1.60;49.80;;;;;;5077605;28;20454;-72
2024/01/18 05:02:37;;;;;;;42.25;25.98;;;1.50;50.60;;;;;;5078530;28;20790;-73
2024/01/18 05:05:03;;;;;;;46.58;26.13;;;1.40;52.00;;;;;;5077063;28;20426;-74
2024/01/18 05:07:28;;;;;;;43.50;25.38;;;1.70;50.10;;;;;;5078039;28;20375;-75
2024/01/18 05:09:54;;;;;;;42.85;24.73;;;2.10;46.80;;;;;;5076185;28;20459;-71
2024/01/18 05:12:20;;;;;;;40.08;25.38;;;2.10;46.40;;;;;;5057173;28;20395;-71
2024/01/18 05:14:45;;;;;;;40.70;24.77;;;1.90;47.80;;;;;;5056386;28;20514;-72
2024/01/18 05:17:12;;;;;;;50.28;26.65;;;1.80;48.20;;;;;;5074681;28;20388;-72
2024/01/18 05:19:38;;;;;;;46.10;26.77;;;1.60;49.60;;;;;;5073927;28;20497;-72
2024/01/18 05:22:04;;;;;;;46.17;27.40;;;1.70;49.50;;;;;;5074155;28;20433;-72
2024/01/18 05:24:30;;;;;;;47.53;27.05;;;1.60;49.10;;;;;;5073337;28;20376;-72
2024/01/18 05:26:56;;;;;;;50.33;27.60;;;1.50;49.20;;;;;;5073434;28;20372;-73
2024/01/18 05:29:21;;;;;;;45.70;26.27;;;1.80;48.20;;;;;;5073051;28;20749;-72
2024/01/18 05:31:47;;;;;;;42.40;25.63;;;1.80;47.80;;;;;;5073868;28;20896;-73
2024/01/18 05:34:13;;;;;;;45.03;27.37;;;1.80;48.10;;;;;;5056069;28;20386;-72
2024/01/18 05:36:38;;;;;;;46.92;28.27;;;1.80;47.70;;;;;;5073134;28;20404;-73
2024/01/18 05:39:04;;;;;;;49.05;27.38;;;1.60;48.40;;;;;;5073219;28;20866;-73
2024/01/18 05:41:30;;;;;;;42.22;26.63;;;1.50;49.10;;;;;;5073792;28;20379;-72
2024/01/18 05:43:55;;;;;;;42.33;26.47;;;1.50;49.80;;;;;;5073483;28;20380;-73
2024/01/18 05:46:22;;;;;;;45.10;27.70;;;1.40;49.90;;;;;;5073551;28;20407;-73
2024/01/18 05:48:48;;;;;;;68.60;37.70;;;1.20;50.90;;;;;;5073521;28;20384;-73
2024/01/18 05:51:14;;;;;;;66.88;36.95;;;0.90;52.20;;;;;;5073327;28;20375;-73
2024/01/18 05:53:40;;;;;;;69.18;38.03;;;0.80;53.90;;;;;;5073501;28;20387;-72
2024/01/18 05:56:06;;;;;;;43.57;28.10;;;1.00;53.20;;;;;;5073422;28;20437;-73
2024/01/18 05:58:32;;;;;;;50.80;28.08;;;1.20;51.90;;;;;;5073381;28;20862;-71
2024/01/18 06:00:57;;;;;;;48.67;28.57;;;1.20;51.70;;;;;;5073213;28;20472;-73
2024/01/18 06:03:23;;;;;;;70.50;36.92;;;1.30;52.50;;;;;;5055370;28;20510;-72
2024/01/18 06:05:49;;;;;;;95.03;45.28;;;1.30;52.90;;;;;;5073372;28;20462;-72
2024/01/18 06:08:15;;;;;;;81.50;41.77;;;1.00;53.80;;;;;;5072929;28;20380;-72
2024/01/18 06:10:42;;;;;;;58.88;30.48;;;1.10;55.40;;;;;;5072165;28;20380;-72
2024/01/18 06:13:09;;;;;;;55.13;27.90;;;1.30;52.70;;;;;;5072454;28;20411;-72
2024/01/18 06:15:35;;;;;;;49.67;28.02;;;1.40;51.70;;;;;;5072276;28;20391;-72
2024/01/18 06:18:03;;;;;;;48.22;27.83;;;1.30;51.80;;;;;;5073462;28;20388;-72
2024/01/18 06:20:29;;;;;;;49.63;28.65;;;1.10;53.20;;;;;;5073168;28;20394;-72
2024/01/18 06:22:57;;;;;;;59.05;30.98;;;0.90;54.30;;;;;;5071816;28;20411;-72
2024/01/18 06:25:23;;;;;;;50.75;27.83;;;0.90;55.60;;;;;;5071855;28;21036;-72
2024/01/18 06:27:49;;;;;;;43.90;28.27;;;1.10;54.80;;;;;;5072542;28;20419;-73
2024/01/18 06:30:17;;;;;;;52.38;31.02;;;1.00;54.90;;;;;;5054497;28;20536;-73
2024/01/18 06:32:42;;;;;;;51.45;30.10;;;0.80;55.80;;;;;;5054893;28;20396;-73
2024/01/18 06:35:09;;;;;;;52.30;29.30;;;0.80;57.20;;;;;;5072718;28;20387;-74
2024/01/18 06:37:35;;;;;;;46.65;28.30;;;1.10;55.50;;;;;;5071962;28;20921;-72
2024/01/18 06:40:00;;;;;;;47.47;27.97;;;1.30;54.20;;;;;;5070815;28;20478;-74
2024/01/18 06:42:32;;;;;;;51.90;30.70;;;1.00;54.50;;;;;;5071186;28;20820;-73
2024/01/18 06:44:58;;;;;;;55.20;30.80;;;0.70;56.40;;;;;;5070862;28;20388;-72
2024/01/18 06:47:23;;;;;;;59.80;31.35;;;0.70;58.40;;;;;;5070594;28;20395;-72
2024/01/18 06:49:49;;;;;;;51.97;30.15;;;0.60;57.90;;;;;;5070077;28;20450;-72
2024/01/18 06:52:14;;;;;;;57.40;32.87;;;0.70;58.30;;;;;;5070927;28;20397;-73
2024/01/18 06:54:43;;;;;;;52.63;30.90;;;0.50;58.80;;;;;;5071003;28;20380;-72
2024/01/18 06:57:09;;;;;;;58.03;32.70;;;0.20;60.70;;;;;;5070411;28;20384;-72
2024/01/18 06:59:35;;;;;;;58.33;31.87;;;0.10;62.80;;;;;;5070114;28;20874;-72
2024/01/18 07:02:01;;;;;;;59.90;31.58;;;-0.10;63.80;;;;;;5069975;28;20392;-72
2024/01/18 07:04:26;;;;;;;56.28;31.98;;;-0.10;65.40;;;;;;5069852;28;20431;-72
2024/01/18 07:06:52;;;;;;;53.43;30.97;;;-0.20;66.20;;;;;;5070249;28;20383;-72
2024/01/18 07:09:18;;;;;;;92.70;42.20;;;-0.20;66.70;;;;;;5069757;28;20387;-72
2024/01/18 07:11:43;;;;;;;336.48;141.02;;;-0.30;67.40;;;;;;5070256;28;21238;-72
2024/01/18 07:14:09;;;;;;;116.60;53.03;;;-0.30;68.30;;;;;;5070360;28;20383;-73
2024/01/18 07:16:34;;;;;;;55.63;32.47;;;-0.30;68.00;;;;;;5070209;28;20487;-72
2024/01/18 07:19:00;;;;;;;54.30;31.57;;;-0.10;67.00;;;;;;5069652;28;20386;-73
2024/01/18 07:21:25;;;;;;;57.57;32.33;;;-0.10;67.40;;;;;;5070571;28;20426;-72
2024/01/18 07:23:51;;;;;;;54.40;33.27;;;0.20;65.20;;;;;;5070403;28;20415;-73
2024/01/18 07:26:18;;;;;;;63.03;32.92;;;0.20;64.10;;;;;;5052905;28;20395;-72
2024/01/18 07:28:44;;;;;;;52.90;31.60;;;0.30;62.60;;;;;;5070007;28;20415;-71
2024/01/18 07:31:09;;;;;;;56.40;32.55;;;0.30;62.40;;;;;;5069578;28;20853;-72
2024/01/18 07:33:37;;;;;;;58.83;32.45;;;0.40;60.90;;;;;;5069340;28;20380;-72
2024/01/18 07:36:03;;;;;;;56.22;32.90;;;0.20;61.80;;;;;;5051348;28;20445;-72
2024/01/18 07:38:28;;;;;;;61.35;32.20;;;0.30;61.60;;;;;;5069325;28;20774;-72
2024/01/18 07:40:54;;;;;;;54.63;31.30;;;0.30;61.20;;;;;;5069680;28;20462;-72
2024/01/18 07:43:19;;;;;;;57.45;32.30;;;0.30;61.20;;;;;;5069496;28;20407;-72
2024/01/18 07:45:45;;;;;;;61.93;32.70;;;0.20;61.30;;;;;;5069871;28;20457;-72
2024/01/18 07:48:10;;;;;;;58.93;31.63;;;0.10;61.90;;;;;;5051678;28;20388;-72
2024/01/18 07:50:37;;;;;;;59.47;32.53;;;0.10;62.60;;;;;;5069637;28;20706;-72
2024/01/18 07:53:07;;;;;;;61.07;34.83;;;0.10;62.80;;;;;;5069784;28;20383;-71
2024/01/18 07:55:33;;;;;;;63.05;34.35;;;0.00;63.30;;;;;;5069391;28;20394;-71
2024/01/18 07:57:58;;;;;;;56.47;33.38;;;0.00;64.30;;;;;;5069940;28;20874;-72
2024/01/18 08:00:25;;;;;;;61.58;35.00;;;0.00;64.50;;;;;;5072830;28;20395;-72
2024/01/18 08:02:50;;;;;;;63.85;34.13;;;-0.10;66.10;;;;;;5072941;28;20403;-72
2024/01/18 08:05:16;;;;;;;62.97;35.67;;;-0.10;65.80;;;;;;5073193;28;20873;-72
2024/01/18 08:07:41;;;;;;;63.00;35.27;;;-0.30;66.20;;;;;;5073364;28;20387;-72
2024/01/18 08:10:09;;;;;;;74.03;38.92;;;-0.60;68.20;;;;;;5072816;28;20469;-72
2024/01/18 08:12:34;;;;;;;75.37;38.47;;;-0.60;71.20;;;;;;5072836;28;20491;-72
2024/01/18 08:15:00;;;;;;;66.38;36.63;;;-0.40;70.90;;;;;;5073063;28;20380;-72
2024/01/18 08:17:25;;;;;;;66.00;37.23;;;-0.30;69.50;;;;;;5072643;28;20459;-72
2024/01/18 08:19:51;;;;;;;65.80;35.57;;;-0.30;68.30;;;;;;5072651;28;20465;-71
2024/01/18 08:22:18;;;;;;;74.70;35.70;;;-0.20;67.90;;;;;;5072665;28;20403;-71
2024/01/18 08:24:43;;;;;;;61.83;35.33;;;-0.20;67.20;;;;;;5073191;28;20447;-72
2024/01/18 08:27:11;;;;;;;71.50;36.47;;;-0.30;67.90;;;;;;5073034;28;20921;-72
2024/01/18 08:32:13;;;;;;;65.03;34.42;;;0.00;66.80;;;;;;5073524;28;20461;-74
2024/01/18 08:34:39;;;;;;;58.50;34.47;;;0.00;65.40;;;;;;5074361;28;20387;-74
2024/01/18 08:37:04;;;;;;;58.10;35.20;;;0.00;64.90;;;;;;5073475;28;20391;-74
2024/01/18 08:39:30;;;;;;;62.57;33.93;;;0.00;65.30;;;;;;5089675;28;20379;-74
2024/01/18 08:41:59;;;;;;;59.45;35.20;;;0.00;64.60;;;;;;5073677;28;20403;-74
2024/01/18 08:44:25;;;;;;;57.22;34.38;;;0.00;65.30;;;;;;5075436;28;20388;-74
2024/01/18 08:46:51;;;;;;;62.28;35.78;;;-0.10;66.30;;;;;;5074826;28;20382;-74
2024/01/18 08:49:18;;;;;;;55.43;34.57;;;0.10;65.10;;;;;;5073638;28;20376;-75
2024/01/18 08:51:44;;;;;;;60.83;33.30;;;0.40;63.10;;;;;;5073315;28;20384;-73
2024/01/18 08:54:09;;;;;;;60.75;33.45;;;0.50;60.70;;;;;;5073228;28;20430;-74
2024/01/18 08:56:36;;;;;;;88.10;41.30;;;0.70;59.40;;;;;;5072088;28;20391;-76
2024/01/18 08:59:01;;;;;;;58.55;33.95;;;0.60;59.30;;;;;;5074723;28;20375;-75
2024/01/18 09:01:27;;;;;;;66.30;35.47;;;0.60;60.60;;;;;;5074277;28;20380;-74
2024/01/18 09:03:52;;;;;;;68.20;35.60;;;0.60;59.40;;;;;;5083600;28;20403;-74
2024/01/18 09:06:18;;;;;;;61.47;35.40;;;0.50;61.10;;;;;;5089680;28;20407;-74
2024/01/18 09:08:44;;;;;;;62.97;35.00;;;0.50;62.40;;;;;;5088529;28;20379;-74
2024/01/18 09:11:09;;;;;;;60.15;33.58;;;0.60;62.00;;;;;;5086867;28;20391;-74
2024/01/18 09:13:35;;;;;;;63.83;33.73;;;0.80;60.30;;;;;;5085376;28;20423;-74
2024/01/18 09:16:01;;;;;;;52.77;33.77;;;0.90;59.60;;;;;;5087117;28;20757;-75
2024/01/18 09:18:26;;;;;;;53.50;31.90;;;1.10;57.50;;;;;;5083779;28;20375;-74
2024/01/18 09:20:52;;;;;;;66.63;34.20;;;1.20;55.40;;;;;;5076781;28;20391;-75
2024/01/18 09:23:18;;;;;;;58.40;33.60;;;1.30;55.10;;;;;;5074390;28;20412;-75
2024/01/18 09:25:44;;;;;;;64.35;34.15;;;1.40;54.50;;;;;;5074177;28;20433;-74
2024/01/18 09:28:10;;;;;;;56.88;33.30;;;1.30;54.40;;;;;;5073388;28;20388;-74
2024/01/18 09:30:36;;;;;;;52.57;31.47;;;1.20;55.90;;;;;;5072254;28;20486;-74
2024/01/18 09:33:02;;;;;;;57.20;33.22;;;1.30;54.90;;;;;;5073245;28;20852;-75
2024/01/18 09:35:28;;;;;;;58.95;31.70;;;1.40;55.60;;;;;;5074169;28;20467;-74
2024/01/18 09:37:54;;;;;;;66.57;33.35;;;1.70;54.40;;;;;;5074442;28;20465;-74
2024/01/18 09:40:19;;;;;;;60.85;30.77;;;1.50;54.50;;;;;;5073978;28;20463;-75
2024/01/18 09:42:46;;;;;;;56.90;30.45;;;1.70;52.70;;;;;;5076389;28;20400;-74
2024/01/18 09:45:14;;;;;;;61.40;33.45;;;1.50;52.70;;;;;;5078541;28;20410;-73
2024/01/18 09:47:41;;;;;;;53.15;31.92;;;1.50;53.90;;;;;;5078133;28;20392;-75
2024/01/18 09:50:07;;;;;;;56.75;32.92;;;1.60;53.90;;;;;;5073896;28;20463;-74
2024/01/18 09:52:33;;;;;;;52.08;31.00;;;1.50;54.40;;;;;;5073133;28;20469;-74
2024/01/18 09:54:59;;;;;;;53.72;32.53;;;1.50;54.80;;;;;;5055476;28;20385;-73
2024/01/18 09:57:32;;;;;;;51.17;31.23;;;1.50;54.90;;;;;;5072734;28;20437;-74
2024/01/18 10:00:00;;;;;;;55.25;32.28;;;1.60;54.30;;;;;;5072691;28;20466;-75
2024/01/18 10:02:29;;;;;;;50.70;31.00;;;1.60;54.40;;;;;;5072582;28;20514;-74
2024/01/18 10:05:00;;;;;;;51.72;30.15;;;1.80;53.90;;;;;;5073691;28;20380;-73
2024/01/18 10:07:27;;;;;;;47.83;29.80;;;2.10;53.20;;;;;;5072041;28;20904;-76
2024/01/18 10:09:53;;;;;;;52.92;30.50;;;2.20;51.00;;;;;;5070520;28;20874;-74
2024/01/18 10:12:19;;;;;;;54.17;29.37;;;2.20;51.00;;;;;;5071181;28;20905;-73
2024/01/18 10:14:46;;;;;;;55.00;29.33;;;2.10;51.30;;;;;;5071701;28;20383;-74
2024/01/18 10:17:21;;;;;;;50.10;28.92;;;2.10;51.70;;;;;;5071939;28;20878;-75
2024/01/18 10:19:57;;;;;;;48.10;29.00;;;2.10;52.00;;;;;;5071644;28;20388;-74
2024/01/18 10:22:23;;;;;;;49.58;29.23;;;2.10;52.20;;;;;;5070883;28;20491;-74
2024/01/18 10:24:52;;;;;;;54.97;29.13;;;2.20;51.40;;;;;;5071818;28;20379;-75
2024/01/18 10:27:19;;;;;;;49.10;29.10;;;2.30;50.70;;;;;;5071638;28;20383;-75
2024/01/18 10:29:44;;;;;;;48.70;28.02;;;2.30;50.60;;;;;;5070640;28;20384;-74
2024/01/18 10:32:10;;;;;;;44.87;27.33;;;2.30;50.90;;;;;;5072860;28;20407;-74
2024/01/18 10:34:36;;;;;;;49.50;28.77;;;2.40;50.70;;;;;;5072238;28;20379;-74
2024/01/18 10:37:03;;;;;;;51.63;29.70;;;2.40;50.10;;;;;;5070746;28;20387;-73
2024/01/18 10:39:40;;;;;;;51.80;29.42;;;2.50;50.70;;;;;;5075890;28;20391;-73
2024/01/18 10:42:10;;;;;;;50.45;29.67;;;2.50;50.60;;;;;;5070235;28;20408;-73
2024/01/18 10:44:43;;;;;;;48.10;28.73;;;2.60;50.10;;;;;;5071599;28;20445;-74
2024/01/18 10:47:15;;;;;;;56.03;29.42;;;2.60;50.70;;;;;;5073010;28;20372;-74
2024/01/18 10:49:41;;;;;;;45.90;25.88;;;2.70;50.20;;;;;;5071017;28;20379;-76
2024/01/18 10:52:09;;;;;;;48.53;24.80;;;2.90;48.20;;;;;;5071440;28;20413;-75
2024/01/18 10:54:36;;;;;;;48.20;25.13;;;3.00;47.40;;;;;;5071089;28;20870;-73
2024/01/18 10:57:02;;;;;;;47.15;25.35;;;3.00;47.40;;;;;;5071573;28;20466;-73
2024/01/18 10:59:29;;;;;;;50.22;25.33;;;3.00;47.60;;;;;;5071592;28;20473;-73
2024/01/18 11:01:59;;;;;;;42.50;23.17;;;3.00;46.80;;;;;;5070879;28;20434;-72
2024/01/18 11:04:30;;;;;;;47.10;23.85;;;3.00;46.90;;;;;;5070878;28;20870;-74
2024/01/18 11:06:58;;;;;;;43.30;22.13;;;2.80;47.30;;;;;;5071823;28;20419;-73
2024/01/18 11:09:28;;;;;;;42.47;24.00;;;2.60;47.80;;;;;;5071450;28;20425;-74
2024/01/18 11:11:56;;;;;;;40.03;22.55;;;2.60;49.10;;;;;;5071238;28;20368;-73
2024/01/18 11:14:23;;;;;;;42.08;23.35;;;2.60;49.30;;;;;;5071500;28;20408;-74
2024/01/18 11:16:48;;;;;;;39.38;23.35;;;2.70;49.40;;;;;;5071643;28;20961;-73
2024/01/18 11:19:37;;;;;;;42.83;23.33;;;2.70;49.90;;;;;;5071186;28;20411;-74
2024/01/18 11:22:02;;;;;;;42.67;23.05;;;2.80;48.40;;;;;;5071303;28;20404;-73
2024/01/18 11:24:28;;;;;;;49.38;23.67;;;2.80;48.40;;;;;;5070985;28;20455;-74
2024/01/18 11:26:57;;;;;;;37.17;23.27;;;2.80;48.90;;;;;;5071324;28;20723;-74
2024/01/18 11:29:25;;;;;;;36.83;20.07;;;2.80;47.90;;;;;;5071010;28;20392;-74
2024/01/18 11:31:51;;;;;;;35.60;20.00;;;2.80;47.70;;;;;;5071635;28;21119;-73
2024/01/18 11:34:30;;;;;;;41.25;20.00;;;2.70;48.20;;;;;;5072735;28;20384;-74
2024/01/18 11:37:09;;;;;;;41.93;21.60;;;2.80;48.30;;;;;;5074843;28;20404;-74
2024/01/18 11:39:52;;;;;;;34.78;22.00;;;2.90;48.00;;;;;;5073360;28;20383;-75
2024/01/18 11:42:29;;;;;;;31.23;19.65;;;3.00;48.70;;;;;;5074371;28;20415;-75
2024/01/18 11:45:04;;;;;;;37.28;18.77;;;3.20;47.50;;;;;;5074279;28;20390;-75
2024/01/18 11:47:34;;;;;;;37.83;18.80;;;3.30;46.00;;;;;;5074279;28;20394;-75
2024/01/18 11:50:05;;;;;;;35.95;18.60;;;3.20;46.60;;;;;;5074504;28;20927;-74
2024/01/18 11:52:32;;;;;;;32.53;17.77;;;3.10;46.30;;;;;;5074368;28;20482;-75
2024/01/18 11:54:59;;;;;;;31.30;18.38;;;3.20;46.50;;;;;;5074550;28;20411;-73
2024/01/18 11:57:26;;;;;;;33.45;17.85;;;3.20;47.40;;;;;;5075048;28;20865;-76
2024/01/18 11:59:53;;;;;;;31.52;16.45;;;3.30;46.90;;;;;;5075323;28;20533;-74
2024/01/18 12:02:20;;;;;;;28.80;16.05;;;3.40;45.20;;;;;;5076542;28;20455;-75
2024/01/18 12:04:45;;;;;;;28.05;14.93;;;3.30;45.60;;;;;;5077497;28;20696;-75
2024/01/18 12:07:12;;;;;;;26.63;15.20;;;3.20;46.20;;;;;;5075784;28;20439;-74
2024/01/18 12:09:38;;;;;;;25.95;14.55;;;3.30;46.30;;;;;;5074112;28;20380;-75
2024/01/18 12:12:07;;;;;;;33.35;14.55;;;3.40;46.00;;;;;;5073843;28;20883;-74
2024/01/18 12:14:38;;;;;;;28.52;14.90;;;3.30;46.20;;;;;;5074015;28;20399;-73
2024/01/18 12:17:04;;;;;;;25.75;13.45;;;3.30;45.70;;;;;;5074088;28;20388;-75
2024/01/18 12:19:34;;;;;;;26.80;12.65;;;3.30;45.90;;;;;;5074481;28;20803;-74
2024/01/18 12:22:18;;;;;;;25.85;11.93;;;3.30;45.30;;;;;;5073831;28;20495;-73
2024/01/18 12:24:47;;;;;;;20.48;11.50;;;3.20;45.00;;;;;;5074039;28;20388;-75
2024/01/18 12:27:14;;;;;;;23.20;11.60;;;3.10;44.80;;;;;;5074019;28;20383;-74
2024/01/18 12:29:40;;;;;;;21.93;10.10;;;3.20;45.40;;;;;;5073616;28;20427;-74
2024/01/18 12:32:10;;;;;;;22.23;11.07;;;3.20;44.80;;;;;;5073584;28;20399;-75
2024/01/18 12:34:36;;;;;;;23.48;9.60;;;3.30;45.10;;;;;;5073720;28;20384;-74